CheckWX is a tool to help pilots better visualize weather data.  It is not intended as a substitute for an official pre-flight weather briefing.

03:14:00 UTC

KHAF METAR
Half Moon Bay Airport
Half Moon Bay, California, USA
Current

19 mins ago

KHAF 260255Z AUTO 30007KT 5SM BR FEW014 OVC021 12/10 A2986 RMK AO2
Observed
May-26 @ 02:55 UTC
Wind
  • 300° at 7 KTS
Visibility
5 SM
Flight Rules
MVFR
Conditions
Mist
Cloud Levels
  • Few at 1,400' AGL
  • Overcast at 2,100' AGL
Temperature
12°C / 54°F
Dewpoint
10°C / 50°F
Humidity
88%
Altimeter
29.86" Hg
Pressure
1011.22 hPa
Previous

34 mins ago

KHAF 260240Z AUTO 30007KT 5SM BR OVC019 12/10 A2986 RMK AO2
Observed
May-26 @ 02:40 UTC
Wind
  • 300° at 7 KTS
Visibility
5 SM
Flight Rules
MVFR
Conditions
Mist
Cloud Levels
  • Overcast at 1,900' AGL
Temperature
12°C / 54°F
Dewpoint
10°C / 50°F
Humidity
88%
Altimeter
29.86" Hg
Pressure
1011.22 hPa
Previous

59 mins ago

KHAF 260215Z AUTO 28008KT 5SM HZ OVC016 13/10 A2986 RMK AO2
Observed
May-26 @ 02:15 UTC
Wind
  • 280° at 8 KTS
Visibility
5 SM
Flight Rules
MVFR
Conditions
Haze
Cloud Levels
  • Overcast at 1,600' AGL
Temperature
13°C / 55°F
Dewpoint
10°C / 50°F
Humidity
82%
Altimeter
29.86" Hg
Pressure
1011.22 hPa